createdAt,value
2023-03-21T00:01:54.683Z,5.37
2023-03-21T00:04:23.802Z,6.60
2023-03-21T00:06:53.437Z,7.00
2023-03-21T00:09:20.783Z,6.63
2023-03-21T00:11:48.375Z,6.10
2023-03-21T00:14:20.829Z,6.60
2023-03-21T00:16:50.838Z,6.57
2023-03-21T00:19:20.910Z,7.20
2023-03-21T00:22:03.607Z,7.40
2023-03-21T00:24:32.885Z,6.90
2023-03-21T00:27:10.744Z,7.40
2023-03-21T00:29:51.612Z,7.43
2023-03-21T00:32:19.223Z,8.90
2023-03-21T00:35:01.533Z,7.17
2023-03-21T00:37:33.350Z,8.37
2023-03-21T00:40:00.421Z,7.53
2023-03-21T00:42:27.988Z,7.90
2023-03-21T00:44:54.686Z,6.80
2023-03-21T00:47:21.368Z,8.37
2023-03-21T00:49:49.912Z,8.07
2023-03-21T00:52:24.790Z,7.37
2023-03-21T00:55:01.542Z,7.43
2023-03-21T00:57:38.152Z,7.77
2023-03-21T01:00:10.650Z,6.37
2023-03-21T01:02:38.015Z,6.83
2023-03-21T01:05:05.442Z,7.07
2023-03-21T01:07:32.256Z,7.50
2023-03-21T01:09:58.891Z,7.67
2023-03-21T01:12:25.723Z,8.23
2023-03-21T01:14:52.368Z,6.10
2023-03-21T01:17:18.995Z,8.00
2023-03-21T01:19:52.130Z,6.60
2023-03-21T01:22:19.837Z,7.70
2023-03-21T01:24:55.151Z,5.80
2023-03-21T01:27:25.552Z,7.43
2023-03-21T01:29:52.289Z,6.80
2023-03-21T01:32:18.934Z,6.07
2023-03-21T01:34:45.557Z,7.17
2023-03-21T01:37:12.227Z,7.20
2023-03-21T01:39:45.702Z,5.70
2023-03-21T01:42:15.540Z,6.60
2023-03-21T01:44:52.855Z,6.20
2023-03-21T01:47:19.748Z,7.60
2023-03-21T01:49:51.448Z,5.43
2023-03-21T01:52:36.596Z,4.80
2023-03-21T01:55:13.664Z,6.80
2023-03-21T01:58:06.862Z,6.10
2023-03-21T02:00:53.974Z,6.80
2023-03-21T02:03:50.354Z,6.13
2023-03-21T02:06:55.488Z,6.50
2023-03-21T02:09:34.671Z,7.10
2023-03-21T02:12:02.637Z,6.73
2023-03-21T02:14:34.567Z,7.33
2023-03-21T02:17:31.765Z,7.67
2023-03-21T02:20:15.167Z,5.83
2023-03-21T02:23:15.519Z,6.00
2023-03-21T02:26:00.934Z,7.00
2023-03-21T02:28:55.812Z,5.93
2023-03-21T02:31:22.437Z,5.43
2023-03-21T02:34:01.805Z,5.50
2023-03-21T02:36:28.696Z,5.37
2023-03-21T02:39:08.001Z,5.73
2023-03-21T02:41:50.526Z,7.83
2023-03-21T02:44:53.907Z,7.37
2023-03-21T02:47:42.142Z,8.77
2023-03-21T02:50:18.946Z,8.33
2023-03-21T02:52:48.331Z,7.03
2023-03-21T02:55:21.966Z,6.57
2023-03-21T02:58:06.884Z,8.10
2023-03-21T03:00:39.364Z,6.90
2023-03-21T03:03:10.525Z,6.23
2023-03-21T03:05:50.298Z,6.00
2023-03-21T03:08:38.520Z,6.50
2023-03-21T03:11:28.813Z,7.17
2023-03-21T03:14:21.018Z,6.47
2023-03-21T03:17:18.187Z,6.00
2023-03-21T03:19:57.370Z,6.80
2023-03-21T03:22:31.674Z,6.87
2023-03-21T03:25:39.512Z,5.73
2023-03-21T03:28:09.679Z,6.27
2023-03-21T03:30:44.952Z,6.10
2023-03-21T03:33:17.946Z,6.17
2023-03-21T03:35:53.025Z,6.13
2023-03-21T03:38:27.688Z,5.70
2023-03-21T03:41:03.333Z,6.13
2023-03-21T03:43:59.432Z,5.40
2023-03-21T03:46:43.023Z,5.20
2023-03-21T03:49:21.354Z,4.87
2023-03-21T03:52:11.798Z,5.40
2023-03-21T03:54:46.367Z,5.20
2023-03-21T03:57:14.278Z,5.80
2023-03-21T03:59:43.597Z,5.70
2023-03-21T04:02:30.196Z,4.60
2023-03-21T04:04:57.838Z,5.17
2023-03-21T04:07:25.200Z,5.33
2023-03-21T04:09:53.762Z,5.40
2023-03-21T04:12:21.122Z,5.00
2023-03-21T04:15:11.520Z,4.90
2023-03-21T04:17:42.782Z,5.00
2023-03-21T04:20:15.039Z,5.27
2023-03-21T04:22:45.805Z,4.60
2023-03-21T04:25:21.837Z,4.77
2023-03-21T04:27:49.704Z,5.20
2023-03-21T04:30:37.787Z,5.80
2023-03-21T04:33:13.353Z,5.10
2023-03-21T04:35:45.938Z,4.90
2023-03-21T04:38:14.022Z,5.30
2023-03-21T04:40:40.689Z,4.83
2023-03-21T04:43:07.465Z,5.17
2023-03-21T04:45:37.532Z,5.30
2023-03-21T04:48:04.414Z,5.33
2023-03-21T04:50:32.355Z,4.60
2023-03-21T04:52:59.921Z,11.97
2023-03-21T04:55:28.063Z,8.80
2023-03-21T04:57:54.862Z,9.23
2023-03-21T05:00:23.077Z,8.60
2023-03-21T05:02:49.832Z,8.53
2023-03-21T05:05:16.558Z,7.50
2023-03-21T05:07:43.200Z,6.00
2023-03-21T05:10:12.023Z,5.80
2023-03-21T05:12:41.265Z,6.13
2023-03-21T05:15:09.632Z,6.13
2023-03-21T05:17:37.191Z,7.30
2023-03-21T05:20:24.406Z,6.13
2023-03-21T05:22:51.988Z,8.13
2023-03-21T05:25:21.246Z,8.97
2023-03-21T05:28:08.082Z,8.93
2023-03-21T05:30:35.294Z,7.27
2023-03-21T05:33:02.835Z,7.80
2023-03-21T05:35:29.731Z,6.17
2023-03-21T05:37:59.095Z,6.07
2023-03-21T05:40:28.644Z,6.17
2023-03-21T05:43:00.696Z,6.53
2023-03-21T05:45:27.487Z,6.83
2023-03-21T05:47:55.678Z,6.90
2023-03-21T05:50:26.269Z,7.80
2023-03-21T05:53:07.946Z,4.90
2023-03-21T05:55:34.975Z,5.90
2023-03-21T05:58:02.558Z,7.23
2023-03-21T06:00:30.780Z,7.73
2023-03-21T06:03:20.505Z,7.70
2023-03-21T06:06:05.616Z,8.77
2023-03-21T06:08:48.969Z,7.73
2023-03-21T06:11:28.732Z,8.70
2023-03-21T06:14:16.827Z,7.57
2023-03-21T06:16:45.355Z,8.43
2023-03-21T06:19:12.934Z,9.33
2023-03-21T06:21:57.835Z,8.50
2023-03-21T06:24:25.201Z,11.30
2023-03-21T06:26:52.098Z,10.90
2023-03-21T06:29:18.933Z,9.17
2023-03-21T06:31:48.858Z,8.90
2023-03-21T06:34:16.403Z,8.30
2023-03-21T06:36:44.766Z,10.77
2023-03-21T06:39:13.867Z,13.33
2023-03-21T06:41:41.074Z,13.80
2023-03-21T06:44:07.814Z,13.70
2023-03-21T06:46:42.521Z,12.27
2023-03-21T06:49:09.297Z,10.57
2023-03-21T06:51:36.044Z,14.33
2023-03-21T06:54:09.785Z,10.53
2023-03-21T06:56:41.548Z,7.40
2023-03-21T06:59:11.320Z,5.93
2023-03-21T07:01:50.223Z,7.00
2023-03-21T07:04:16.865Z,5.80
2023-03-21T07:06:43.863Z,5.63
2023-03-21T07:09:10.953Z,6.00
2023-03-21T07:11:38.298Z,5.60
2023-03-21T07:14:06.500Z,5.70
2023-03-21T07:16:33.280Z,6.27
2023-03-21T07:19:00.032Z,5.90
2023-03-21T07:21:26.712Z,8.10
2023-03-21T07:23:53.790Z,7.73
2023-03-21T07:26:20.715Z,6.50
2023-03-21T07:28:47.466Z,6.27
2023-03-21T07:31:16.696Z,6.37
2023-03-21T07:33:43.747Z,5.07
2023-03-21T07:36:13.064Z,4.57
2023-03-21T07:38:41.129Z,5.07
2023-03-21T07:41:08.017Z,4.80
2023-03-21T07:43:37.130Z,4.53
2023-03-21T07:46:09.421Z,7.30
2023-03-21T07:48:37.213Z,7.50
2023-03-21T07:51:04.215Z,4.20
2023-03-21T07:53:31.111Z,5.57
2023-03-21T07:56:00.657Z,4.30
2023-03-21T07:58:28.463Z,5.97
2023-03-21T08:00:56.607Z,4.93
2023-03-21T08:03:24.008Z,4.20
2023-03-21T08:05:51.080Z,4.40
2023-03-21T08:08:18.003Z,3.50
2023-03-21T08:10:45.050Z,3.63
2023-03-21T08:13:12.475Z,3.90
2023-03-21T08:15:42.031Z,3.30
2023-03-21T08:18:10.012Z,3.83
2023-03-21T08:20:36.840Z,4.00
2023-03-21T08:23:03.601Z,5.17
2023-03-21T08:25:30.871Z,3.83
2023-03-21T08:27:57.504Z,3.40
2023-03-21T08:30:26.431Z,3.80
2023-03-21T08:33:00.463Z,4.90
2023-03-21T08:35:27.838Z,3.70
2023-03-21T08:37:54.506Z,3.13
2023-03-21T08:40:21.191Z,3.00
2023-03-21T08:42:47.980Z,3.70
2023-03-21T08:45:16.567Z,2.60
2023-03-21T08:47:43.632Z,5.40
2023-03-21T08:50:14.398Z,3.10
2023-03-21T08:52:41.508Z,2.90
2023-03-21T08:55:09.153Z,2.70
2023-03-21T08:57:36.252Z,2.37
2023-03-21T09:00:14.850Z,3.13
2023-03-21T09:02:42.699Z,3.73
2023-03-21T09:05:11.867Z,3.13
2023-03-21T09:07:39.980Z,3.53
2023-03-21T09:10:25.346Z,4.03
2023-03-21T09:12:54.608Z,3.47
2023-03-21T09:15:24.779Z,3.97
2023-03-21T09:17:54.133Z,3.90
2023-03-21T09:20:30.625Z,3.23
2023-03-21T09:22:58.782Z,3.67
2023-03-21T09:25:25.596Z,2.40
2023-03-21T09:27:53.760Z,3.13
2023-03-21T09:30:24.787Z,3.80
2023-03-21T09:32:53.642Z,3.40
2023-03-21T09:35:21.140Z,3.93
2023-03-21T09:37:49.004Z,4.00
2023-03-21T09:40:29.841Z,3.33
2023-03-21T09:43:17.128Z,3.77
2023-03-21T09:45:54.875Z,2.80
2023-03-21T09:48:57.088Z,3.43
2023-03-21T09:51:28.705Z,3.50
2023-03-21T09:53:57.676Z,3.80
2023-03-21T09:56:26.056Z,3.33
2023-03-21T09:58:59.336Z,3.00
2023-03-21T10:01:29.844Z,3.13
2023-03-21T10:04:00.150Z,3.90
2023-03-21T10:06:31.719Z,3.37
2023-03-21T10:09:07.288Z,3.37
2023-03-21T10:11:50.423Z,3.67
2023-03-21T10:14:32.304Z,3.37
2023-03-21T10:17:04.214Z,4.00
2023-03-21T10:19:30.981Z,2.90
2023-03-21T10:22:01.107Z,3.17
2023-03-21T10:24:31.355Z,2.77
2023-03-21T10:26:58.656Z,3.70
2023-03-21T10:29:30.570Z,3.47
2023-03-21T10:31:57.415Z,3.90
2023-03-21T10:34:36.694Z,3.97
2023-03-21T10:37:05.499Z,3.30
2023-03-21T10:39:44.056Z,3.47
2023-03-21T10:42:18.097Z,3.07
2023-03-21T10:44:51.339Z,2.93
2023-03-21T10:47:24.746Z,2.90
2023-03-21T10:50:08.805Z,1.90
2023-03-21T10:52:38.450Z,2.53
2023-03-21T10:55:18.614Z,3.03
2023-03-21T10:57:47.265Z,2.43
2023-03-21T11:00:21.706Z,2.77
2023-03-21T11:02:51.341Z,2.60
2023-03-21T11:05:34.832Z,2.67
2023-03-21T11:08:18.641Z,2.47
2023-03-21T11:11:02.314Z,2.53
2023-03-21T11:13:34.988Z,2.17
2023-03-21T11:16:25.459Z,2.83
2023-03-21T11:18:56.969Z,2.13
2023-03-21T11:21:29.707Z,1.87
2023-03-21T11:23:57.478Z,2.40
2023-03-21T11:26:36.592Z,2.63
2023-03-21T11:29:20.897Z,2.67
2023-03-21T11:31:48.174Z,2.20
2023-03-21T11:34:32.901Z,2.40
2023-03-21T11:37:02.670Z,2.07
2023-03-21T11:39:39.942Z,1.73
2023-03-21T11:42:26.719Z,1.73
2023-03-21T11:45:01.599Z,3.10
2023-03-21T11:47:28.520Z,2.60
2023-03-21T11:50:04.626Z,2.80
2023-03-21T11:52:41.239Z,2.20
2023-03-21T11:55:11.390Z,2.20
2023-03-21T11:57:54.824Z,2.37
2023-03-21T12:00:57.956Z,2.50
2023-03-21T12:03:48.500Z,2.43
2023-03-21T12:06:22.507Z,2.60
2023-03-21T12:09:01.361Z,2.53
2023-03-21T12:11:37.499Z,2.80
2023-03-21T12:14:48.651Z,2.00
2023-03-21T12:17:53.294Z,1.93
2023-03-21T12:20:52.021Z,2.30
2023-03-21T12:23:27.759Z,2.07
2023-03-21T12:25:58.017Z,2.10
2023-03-21T12:28:39.909Z,2.00
2023-03-21T12:31:33.091Z,2.77
2023-03-21T12:33:59.691Z,2.93
2023-03-21T12:36:38.633Z,2.20
2023-03-21T12:39:11.132Z,2.00
2023-03-21T12:41:50.187Z,1.90
2023-03-21T12:44:21.319Z,2.10
2023-03-21T12:47:02.291Z,2.60
2023-03-21T12:49:35.061Z,1.93
2023-03-21T12:52:07.677Z,2.47
2023-03-21T12:55:18.751Z,2.10
2023-03-21T12:58:18.354Z,2.17
2023-03-21T13:00:48.877Z,2.00
2023-03-21T13:03:39.836Z,3.10
2023-03-21T13:06:09.639Z,2.57
2023-03-21T13:08:58.243Z,2.47
2023-03-21T13:11:27.930Z,2.50
2023-03-21T13:14:16.441Z,2.17
2023-03-21T13:17:06.693Z,2.37
2023-03-21T13:19:42.548Z,1.80
2023-03-21T13:22:15.055Z,2.07
2023-03-21T13:24:48.490Z,1.60
2023-03-21T13:27:36.344Z,2.13
2023-03-21T13:30:06.540Z,2.53
2023-03-21T13:32:41.681Z,2.07
2023-03-21T13:35:18.989Z,2.03
2023-03-21T13:38:21.880Z,1.90
2023-03-21T13:40:57.918Z,2.00
2023-03-21T13:43:42.948Z,2.80
2023-03-21T13:46:54.679Z,2.20
2023-03-21T13:49:36.656Z,2.63
2023-03-21T13:52:09.303Z,2.63
2023-03-21T13:54:39.031Z,2.23
2023-03-21T13:57:06.679Z,1.90
2023-03-21T13:59:44.710Z,1.80
2023-03-21T14:02:29.518Z,1.63
2023-03-21T14:05:17.407Z,2.30
2023-03-21T14:07:48.305Z,2.60
2023-03-21T14:10:42.175Z,2.13
2023-03-21T14:13:16.270Z,2.20
2023-03-21T14:15:55.370Z,1.90
2023-03-21T14:18:34.909Z,2.23
2023-03-21T14:21:24.324Z,2.23
2023-03-21T14:24:12.550Z,2.37
2023-03-21T14:26:47.005Z,2.37
2023-03-21T14:29:26.107Z,2.03
2023-03-21T14:31:56.420Z,2.40
2023-03-21T14:34:26.436Z,2.53
2023-03-21T14:36:58.325Z,2.43
2023-03-21T14:39:31.222Z,1.87
2023-03-21T14:42:11.538Z,1.70
2023-03-21T14:44:54.040Z,1.97
2023-03-21T14:47:27.791Z,1.97
2023-03-21T14:49:56.426Z,2.10
2023-03-21T14:52:33.192Z,2.30
2023-03-21T14:55:01.962Z,2.27
2023-03-21T14:57:33.218Z,2.63
2023-03-21T15:00:07.665Z,2.47
2023-03-21T15:02:36.796Z,1.80
2023-03-21T15:05:19.747Z,1.77
2023-03-21T15:08:08.115Z,2.20
2023-03-21T15:10:36.061Z,3.30
2023-03-21T15:13:15.141Z,2.63
2023-03-21T15:15:42.989Z,2.27
2023-03-21T15:18:16.405Z,3.00
2023-03-21T15:20:43.933Z,3.70
2023-03-21T15:23:21.352Z,3.50
2023-03-21T15:25:48.001Z,2.80
2023-03-21T15:28:14.894Z,3.30
2023-03-21T15:30:51.325Z,2.03
2023-03-21T15:33:19.081Z,5.07
2023-03-21T15:35:57.880Z,2.73
2023-03-21T15:38:41.582Z,3.73
2023-03-21T15:41:14.381Z,3.57
2023-03-21T15:43:42.127Z,5.10
2023-03-21T15:46:16.628Z,9.90
2023-03-21T15:48:44.278Z,18.07
2023-03-21T15:51:23.878Z,55.23
2023-03-21T15:53:54.133Z,4.77
2023-03-21T15:56:22.134Z,3.07
2023-03-21T15:58:52.593Z,2.40
2023-03-21T16:01:22.096Z,2.10
2023-03-21T16:03:56.677Z,2.97
2023-03-21T16:06:30.118Z,2.43
2023-03-21T16:09:08.898Z,2.30
2023-03-21T16:11:43.789Z,2.50
2023-03-21T16:14:10.943Z,2.80
2023-03-21T16:16:39.842Z,2.63
2023-03-21T16:19:07.502Z,2.00
2023-03-21T16:21:38.192Z,2.07
2023-03-21T16:24:06.656Z,2.47
2023-03-21T16:26:37.911Z,2.20
2023-03-21T16:29:07.143Z,2.70
2023-03-21T16:31:35.274Z,2.37
2023-03-21T16:34:01.946Z,2.53
2023-03-21T16:36:33.855Z,2.43
2023-03-21T16:39:00.536Z,2.40
2023-03-21T16:41:28.094Z,2.13
2023-03-21T16:43:55.339Z,2.40
2023-03-21T16:46:25.409Z,2.20
2023-03-21T16:48:58.680Z,3.10
2023-03-21T16:51:31.564Z,7.40
2023-03-21T16:53:58.563Z,7.60
2023-03-21T16:56:38.490Z,8.20
2023-03-21T16:59:06.045Z,20.60
2023-03-21T17:01:32.841Z,25.97
2023-03-21T17:04:00.130Z,17.37
2023-03-21T17:06:29.466Z,8.40
2023-03-21T17:08:57.738Z,4.10
2023-03-21T17:11:26.245Z,2.70
2023-03-21T17:13:54.921Z,2.23
2023-03-21T17:16:26.594Z,2.00
2023-03-21T17:18:54.051Z,2.90
2023-03-21T17:21:24.595Z,2.30
2023-03-21T17:23:51.980Z,2.20
2023-03-21T17:26:21.800Z,2.10
2023-03-21T17:28:48.977Z,3.00
2023-03-21T17:31:18.477Z,3.03
2023-03-21T17:33:45.930Z,4.00
2023-03-21T17:36:30.631Z,3.23
2023-03-21T17:38:57.943Z,3.10
2023-03-21T17:41:45.701Z,3.13
2023-03-21T17:44:12.382Z,4.93
2023-03-21T17:46:39.311Z,5.13
2023-03-21T17:49:06.548Z,5.40
2023-03-21T17:51:33.238Z,6.83
2023-03-21T17:54:00.437Z,7.90
2023-03-21T17:56:30.711Z,11.70
2023-03-21T17:58:59.676Z,9.27
2023-03-21T18:01:26.785Z,7.60
2023-03-21T18:03:56.699Z,7.00
2023-03-21T18:06:25.576Z,6.73
2023-03-21T18:08:53.600Z,5.70
2023-03-21T18:11:22.119Z,5.43
2023-03-21T18:13:48.945Z,5.60
2023-03-21T18:16:19.366Z,6.50
2023-03-21T18:18:46.723Z,6.57
2023-03-21T18:21:19.641Z,9.03
2023-03-21T18:23:47.835Z,10.00
2023-03-21T18:26:18.211Z,10.10
2023-03-21T18:28:46.778Z,8.70
2023-03-21T18:31:19.804Z,5.97
2023-03-21T18:33:48.630Z,6.50
2023-03-21T18:36:24.777Z,18.53
2023-03-21T18:38:52.643Z,15.97
2023-03-21T18:41:19.857Z,20.33
2023-03-21T18:44:12.966Z,26.20
2023-03-21T18:46:34.105Z,20.27
2023-03-21T18:49:15.080Z,14.80
2023-03-21T18:51:48.061Z,12.23
2023-03-21T18:54:20.558Z,11.13
2023-03-21T18:57:34.220Z,10.50
2023-03-21T18:59:41.208Z,8.87
2023-03-21T19:02:08.135Z,7.60
2023-03-21T19:04:37.543Z,7.23
2023-03-21T19:07:05.145Z,4.63
2023-03-21T19:09:32.278Z,4.07
2023-03-21T19:12:00.713Z,3.70
2023-03-21T19:14:28.047Z,4.10
2023-03-21T19:17:45.486Z,4.60
2023-03-21T19:19:43.565Z,4.87
2023-03-21T19:22:11.420Z,4.47
2023-03-21T19:24:39.718Z,4.20
2023-03-21T19:27:07.555Z,4.50
2023-03-21T19:29:34.428Z,4.10
2023-03-21T19:32:01.503Z,4.40
2023-03-21T19:34:32.492Z,3.70
2023-03-21T19:37:02.605Z,3.20
2023-03-21T19:39:29.552Z,3.67
2023-03-21T19:42:12.498Z,4.50
2023-03-21T19:44:42.514Z,4.70
2023-03-21T19:47:10.608Z,4.87
2023-03-21T19:50:27.302Z,5.87
2023-03-21T19:52:29.956Z,4.10
2023-03-21T19:54:56.908Z,4.30
2023-03-21T19:57:25.028Z,4.00
2023-03-21T19:59:54.652Z,4.90
2023-03-21T20:02:35.032Z,4.13
2023-03-21T20:05:02.463Z,5.03
2023-03-21T20:07:31.370Z,4.20
2023-03-21T20:09:58.349Z,4.10
2023-03-21T20:12:25.075Z,5.00
2023-03-21T20:14:56.020Z,4.63
2023-03-21T20:17:28.057Z,4.77
2023-03-21T20:19:58.182Z,4.83
2023-03-21T20:22:46.051Z,4.70
2023-03-21T20:25:12.102Z,4.00
2023-03-21T20:27:41.564Z,5.17
2023-03-21T20:30:14.958Z,5.00
2023-03-21T20:32:43.955Z,5.53
2023-03-21T20:35:21.021Z,5.30
2023-03-21T20:37:59.831Z,4.97
2023-03-21T20:40:26.643Z,4.67
2023-03-21T20:42:56.241Z,5.13
2023-03-21T20:45:22.903Z,5.40
2023-03-21T20:47:49.667Z,5.33
2023-03-21T20:50:22.240Z,5.60
2023-03-21T20:53:04.904Z,5.83
2023-03-21T20:55:37.064Z,6.93
2023-03-21T20:58:23.176Z,6.97
2023-03-21T21:00:59.395Z,6.73
2023-03-21T21:03:26.792Z,7.07
2023-03-21T21:05:54.131Z,8.30
2023-03-21T21:08:20.814Z,7.43
2023-03-21T21:11:19.113Z,8.00
2023-03-21T21:13:36.729Z,7.83
2023-03-21T21:16:05.959Z,7.73
2023-03-21T21:18:33.379Z,6.70
2023-03-21T21:21:05.200Z,8.87
2023-03-21T21:23:37.050Z,8.67
2023-03-21T21:26:04.743Z,7.70
2023-03-21T21:28:31.624Z,7.77
2023-03-21T21:31:14.464Z,7.80
2023-03-21T21:33:41.138Z,8.50
2023-03-21T21:36:09.337Z,10.10
2023-03-21T21:38:36.890Z,8.87
2023-03-21T21:41:04.040Z,7.70
2023-03-21T21:43:31.336Z,6.43
2023-03-21T21:45:58.004Z,7.00
2023-03-21T21:48:24.913Z,5.97
2023-03-21T21:50:54.090Z,4.27
2023-03-21T21:53:23.472Z,4.07
2023-03-21T21:55:51.114Z,3.90
2023-03-21T21:58:18.862Z,4.00
2023-03-21T22:00:47.234Z,4.53
2023-03-21T22:03:16.306Z,3.40
2023-03-21T22:05:44.469Z,3.53
2023-03-21T22:08:11.493Z,4.70
2023-03-21T22:10:38.635Z,3.83
2023-03-21T22:13:05.513Z,3.47
2023-03-21T22:15:33.271Z,3.90
2023-03-21T22:18:00.033Z,4.23
2023-03-21T22:20:26.848Z,5.03
2023-03-21T22:22:56.695Z,4.93
2023-03-21T22:25:23.691Z,6.50
2023-03-21T22:27:50.647Z,7.03
2023-03-21T22:30:18.632Z,6.40
2023-03-21T22:32:56.438Z,5.50
2023-03-21T22:35:29.423Z,4.70
2023-03-21T22:37:56.379Z,3.93
2023-03-21T22:40:24.298Z,4.40
2023-03-21T22:42:50.944Z,3.83
2023-03-21T22:45:17.774Z,4.70
2023-03-21T22:47:44.469Z,4.33
2023-03-21T22:50:11.241Z,4.40
2023-03-21T22:52:37.920Z,4.80
2023-03-21T22:55:05.051Z,4.40
2023-03-21T22:57:31.813Z,4.90
2023-03-21T22:59:58.594Z,4.50
2023-03-21T23:02:25.567Z,4.13
2023-03-21T23:04:52.459Z,6.20
2023-03-21T23:07:19.248Z,5.37
2023-03-21T23:09:45.989Z,4.70
2023-03-21T23:12:14.189Z,4.73
2023-03-21T23:14:40.920Z,4.30
2023-03-21T23:17:10.243Z,4.47
2023-03-21T23:19:37.808Z,3.73
2023-03-21T23:22:05.972Z,3.93
2023-03-21T23:24:32.630Z,4.00
2023-03-21T23:26:59.331Z,4.00
2023-03-21T23:29:26.031Z,3.80
2023-03-21T23:31:52.764Z,3.87
2023-03-21T23:34:19.700Z,3.83
2023-03-21T23:36:46.688Z,3.77
2023-03-21T23:39:13.458Z,6.07
2023-03-21T23:41:42.679Z,3.80
2023-03-21T23:44:09.465Z,3.50
2023-03-21T23:46:36.183Z,4.47
2023-03-21T23:49:03.038Z,3.73
2023-03-21T23:51:29.668Z,4.50
2023-03-21T23:53:57.199Z,3.80
2023-03-21T23:56:26.103Z,4.70
2023-03-21T23:58:52.880Z,4.73
